Time;durP1;ratioP1;P1;durP2;ratioP2;P2;SDS_P1;SDS_P2;PMS_P1;PMS_P2;Temp;Humidity;BMP_temperature;BMP_pressure;BME280_temperature;BME280_humidity;BME280_pressure;Samples;Min_cycle;Max_cycle;Signal;HPM_P1;HPM_P2
2022/05/19 00:01:04;;;;;;;14.32;9.25;;;;;;;;;;5032661;28;20073;-66
2022/05/19 00:03:33;;;;;;;13.70;8.57;;;;;;;;;;5033307;28;20061;-66
2022/05/19 00:06:01;;;;;;;12.13;8.57;;;;;;;;;;5032896;28;20514;-66
2022/05/19 00:08:29;;;;;;;13.73;9.18;;;;;;;;;;5032238;28;20077;-66
2022/05/19 00:10:58;;;;;;;13.63;8.25;;;;;;;;;;5032314;28;20061;-66
2022/05/19 00:13:26;;;;;;;11.00;9.15;;;;;;;;;;5032483;28;20045;-66
2022/05/19 00:15:53;;;;;;;12.60;8.88;;;;;;;;;;5032670;28;20054;-66
2022/05/19 00:18:20;;;;;;;11.50;8.93;;;;;;;;;;5032093;28;20135;-66
2022/05/19 00:20:47;;;;;;;12.05;9.15;;;;;;;;;;5032536;28;20486;-66
2022/05/19 00:23:16;;;;;;;12.07;8.20;;;;;;;;;;5032436;28;20049;-66
2022/05/19 00:25:43;;;;;;;16.38;8.75;;;;;;;;;;5032160;28;20049;-66
2022/05/19 00:28:10;;;;;;;11.85;8.70;;;;;;;;;;5032099;28;20052;-66
2022/05/19 00:30:38;;;;;;;13.02;8.95;;;;;;;;;;5032257;28;20059;-64
2022/05/19 00:33:05;;;;;;;10.70;8.50;;;;;;;;;;5032033;28;20419;-66
2022/05/19 00:35:32;;;;;;;12.82;8.88;;;;;;;;;;5031678;28;20050;-66
2022/05/19 00:37:59;;;;;;;13.98;9.75;;;;;;;;;;5032347;28;20491;-66
2022/05/19 00:40:28;;;;;;;14.10;8.50;;;;;;;;;;5032181;28;20510;-66
2022/05/19 00:42:54;;;;;;;12.05;8.43;;;;;;;;;;5031614;28;20483;-66
2022/05/19 00:45:23;;;;;;;13.73;8.65;;;;;;;;;;5032192;28;20388;-66
2022/05/19 00:47:53;;;;;;;10.98;8.40;;;;;;;;;;5031691;28;20057;-66
2022/05/19 00:50:24;;;;;;;13.50;8.98;;;;;;;;;;5032271;28;20053;-66
2022/05/19 00:52:51;;;;;;;;;;;;;;;;;;5032044;28;20065;-66
2022/05/19 00:55:23;;;;;;;15.25;8.60;;;;;;;;;;5032531;28;19940;-66
2022/05/19 00:57:58;;;;;;;12.15;8.02;;;;;;;;;;5031840;28;20061;-66
2022/05/19 01:00:25;;;;;;;9.50;7.90;;;;;;;;;;5012425;28;20496;-66
2022/05/19 01:02:56;;;;;;;12.88;8.85;;;;;;;;;;5016937;28;20041;-66
2022/05/19 01:05:28;;;;;;;12.13;8.40;;;;;;;;;;5031547;28;20073;-66
2022/05/19 01:07:59;;;;;;;12.55;8.13;;;;;;;;;;5031623;28;20041;-66
2022/05/19 01:10:26;;;;;;;13.85;8.05;;;;;;;;;;5034239;28;20072;-66
2022/05/19 01:12:55;;;;;;;12.80;7.90;;;;;;;;;;5035824;28;20045;-66
2022/05/19 01:15:23;;;;;;;11.68;8.43;;;;;;;;;;5035610;28;20050;-66
2022/05/19 01:17:50;;;;;;;11.52;8.23;;;;;;;;;;5035418;28;20060;-66
2022/05/19 01:20:20;;;;;;;11.13;8.48;;;;;;;;;;5035569;28;20088;-66
2022/05/19 01:22:53;;;;;;;10.18;8.15;;;;;;;;;;5035691;28;20052;-66
2022/05/19 01:25:31;;;;;;;12.27;7.47;;;;;;;;;;5035699;28;20418;-66
2022/05/19 01:28:00;;;;;;;11.25;8.23;;;;;;;;;;5035318;28;20053;-66
2022/05/19 01:30:27;;;;;;;11.93;7.47;;;;;;;;;;5035090;28;20406;-66
2022/05/19 01:32:55;;;;;;;11.70;8.10;;;;;;;;;;5036087;28;20046;-66
2022/05/19 01:36:06;;;;;;;13.60;7.90;;;;;;;;;;5035189;28;20049;-66
2022/05/19 01:38:34;;;;;;;13.07;8.15;;;;;;;;;;5033387;28;20054;-66
2022/05/19 01:41:14;;;;;;;11.90;7.60;;;;;;;;;;5035335;28;20426;-65
2022/05/19 01:43:51;;;;;;;10.45;7.55;;;;;;;;;;5035231;28;20050;-64
2022/05/19 01:46:28;;;;;;;10.68;7.50;;;;;;;;;;5035209;28;20049;-64
2022/05/19 01:49:02;;;;;;;13.57;8.30;;;;;;;;;;5035017;28;20057;-65
2022/05/19 01:51:35;;;;;;;10.75;7.95;;;;;;;;;;5035354;28;20423;-64
2022/05/19 01:54:07;;;;;;;11.45;7.68;;;;;;;;;;5048482;22;20042;-79
2022/05/19 01:56:38;;;;;;;10.98;7.95;;;;;;;;;;5018419;28;20062;-78
2022/05/19 01:59:15;;;;;;;11.43;7.68;;;;;;;;;;5019576;28;20054;-78
2022/05/19 02:01:49;;;;;;;15.02;8.27;;;;;;;;;;5018687;28;20085;-79
2022/05/19 02:04:22;;;;;;;11.15;8.38;;;;;;;;;;5016100;28;20056;-78
2022/05/19 02:06:53;;;;;;;11.57;8.50;;;;;;;;;;5016374;28;20138;-78
2022/05/19 02:09:23;;;;;;;11.88;7.70;;;;;;;;;;5015226;28;20124;-77
2022/05/19 02:11:54;;;;;;;10.87;8.27;;;;;;;;;;5016153;28;20115;-78
2022/05/19 02:14:29;;;;;;;10.60;7.93;;;;;;;;;;5015634;28;20420;-78
2022/05/19 02:16:56;;;;;;;9.82;7.93;;;;;;;;;;5015541;28;20523;-78
2022/05/19 02:19:28;;;;;;;10.25;8.80;;;;;;;;;;5014975;28;20127;-76
2022/05/19 02:21:56;;;;;;;13.65;7.75;;;;;;;;;;5015157;28;20088;-77
2022/05/19 02:24:26;;;;;;;11.63;8.20;;;;;;;;;;5015536;28;20042;-77
2022/05/19 02:26:53;;;;;;;11.95;8.18;;;;;;;;;;5015863;28;20046;-78
2022/05/19 02:29:26;;;;;;;11.38;8.30;;;;;;;;;;5015192;28;20738;-77
2022/05/19 02:31:53;;;;;;;14.27;8.13;;;;;;;;;;5015499;28;20050;-78
2022/05/19 02:34:20;;;;;;;10.30;8.30;;;;;;;;;;5015044;28;20050;-78
2022/05/19 02:36:47;;;;;;;14.40;8.15;;;;;;;;;;5015400;28;20050;-78
2022/05/19 02:39:13;;;;;;;10.52;7.60;;;;;;;;;;5016423;28;20049;-78
2022/05/19 02:41:40;;;;;;;8.48;7.25;;;;;;;;;;5017408;28;20077;-78
2022/05/19 02:44:07;;;;;;;11.88;8.70;;;;;;;;;;5015955;28;20081;-77
2022/05/19 02:46:35;;;;;;;11.43;7.88;;;;;;;;;;5008343;28;20050;-77
2022/05/19 02:49:03;;;;;;;10.93;7.53;;;;;;;;;;5010346;28;20088;-76
2022/05/19 02:51:30;;;;;;;11.48;8.43;;;;;;;;;;5014525;28;20060;-78
2022/05/19 02:53:57;;;;;;;10.77;8.55;;;;;;;;;;5014426;28;20054;-77
2022/05/19 02:56:24;;;;;;;10.10;8.10;;;;;;;;;;5013931;28;20046;-77
2022/05/19 02:58:51;;;;;;;12.13;8.20;;;;;;;;;;5014031;28;20124;-77
2022/05/19 03:01:17;;;;;;;16.05;8.27;;;;;;;;;;5014258;28;20085;-76
2022/05/19 03:03:46;;;;;;;12.13;8.48;;;;;;;;;;5014857;28;20072;-77
2022/05/19 03:06:12;;;;;;;13.18;7.97;;;;;;;;;;5015616;28;20464;-77
2022/05/19 03:08:39;;;;;;;14.80;8.52;;;;;;;;;;5016481;28;20077;-78
2022/05/19 03:11:06;;;;;;;13.07;8.82;;;;;;;;;;5016382;28;20128;-78
2022/05/19 03:13:33;;;;;;;12.57;8.35;;;;;;;;;;5017097;28;20077;-78
2022/05/19 03:16:00;;;;;;;14.45;9.95;;;;;;;;;;5014611;28;20069;-76
2022/05/19 03:18:27;;;;;;;12.40;9.07;;;;;;;;;;5016045;28;20077;-77
2022/05/19 03:20:55;;;;;;;11.93;9.00;;;;;;;;;;5015395;28;20117;-77
2022/05/19 03:23:21;;;;;;;14.27;9.65;;;;;;;;;;5014890;28;20073;-77
2022/05/19 03:25:48;;;;;;;12.40;8.63;;;;;;;;;;5014889;28;20045;-78
2022/05/19 03:28:16;;;;;;;14.05;8.43;;;;;;;;;;5016854;28;20078;-78
2022/05/19 03:30:43;;;;;;;11.95;8.77;;;;;;;;;;5015351;28;20045;-78
2022/05/19 03:33:10;;;;;;;15.32;8.20;;;;;;;;;;5014511;28;20069;-78
2022/05/19 03:35:37;;;;;;;12.80;8.98;;;;;;;;;;5015128;28;20046;-77
2022/05/19 03:38:05;;;;;;;16.17;10.43;;;;;;;;;;5015552;28;20077;-78
2022/05/19 03:40:32;;;;;;;12.35;8.55;;;;;;;;;;5017425;28;20054;-78
2022/05/19 03:42:59;;;;;;;20.38;13.48;;;;;;;;;;5017730;28;20041;-78
2022/05/19 03:45:26;;;;;;;13.25;8.60;;;;;;;;;;5013858;28;20073;-78
2022/05/19 03:47:53;;;;;;;15.40;10.35;;;;;;;;;;5002263;28;20066;-77
2022/05/19 03:50:20;;;;;;;15.70;9.65;;;;;;;;;;4993612;28;20069;-78
2022/05/19 03:52:47;;;;;;;10.98;8.40;;;;;;;;;;5005257;28;20058;-76
2022/05/19 03:55:15;;;;;;;12.05;9.18;;;;;;;;;;5013156;28;20046;-76
2022/05/19 03:57:42;;;;;;;13.32;8.40;;;;;;;;;;5013759;28;20104;-76
2022/05/19 04:00:11;;;;;;;13.30;9.30;;;;;;;;;;5015582;28;20503;-77
2022/05/19 04:02:38;;;;;;;10.45;8.00;;;;;;;;;;5015973;28;20088;-77
2022/05/19 04:05:06;;;;;;;14.50;9.77;;;;;;;;;;5014503;28;20566;-76
2022/05/19 04:07:33;;;;;;;13.55;8.63;;;;;;;;;;5015726;28;20085;-77
2022/05/19 04:10:00;;;;;;;12.52;8.68;;;;;;;;;;5016046;28;20042;-79
2022/05/19 04:12:28;;;;;;;14.38;8.75;;;;;;;;;;5017732;28;20084;-78
2022/05/19 04:14:55;;;;;;;12.98;8.57;;;;;;;;;;5020464;28;20053;-80
2022/05/19 04:17:21;;;;;;;11.43;8.18;;;;;;;;;;5021044;28;20054;-79
2022/05/19 04:19:48;;;;;;;11.82;8.50;;;;;;;;;;5018861;28;20060;-78
2022/05/19 04:22:15;;;;;;;12.65;8.43;;;;;;;;;;5017187;28;20096;-79
2022/05/19 04:24:42;;;;;;;14.35;8.63;;;;;;;;;;5016129;28;20460;-79
2022/05/19 04:27:11;;;;;;;13.00;8.82;;;;;;;;;;5017081;28;20049;-77
2022/05/19 04:29:39;;;;;;;14.10;8.43;;;;;;;;;;4996900;28;20053;-79
2022/05/19 04:32:06;;;;;;;16.85;8.52;;;;;;;;;;4997889;28;20057;-78
2022/05/19 04:34:33;;;;;;;11.07;8.32;;;;;;;;;;5014141;28;20088;-78
2022/05/19 04:37:00;;;;;;;12.25;8.18;;;;;;;;;;5015489;28;20531;-78
2022/05/19 04:39:27;;;;;;;12.07;8.52;;;;;;;;;;5015946;28;20452;-77
2022/05/19 04:41:53;;;;;;;12.15;8.13;;;;;;;;;;5016619;28;20082;-78
2022/05/19 04:44:21;;;;;;;11.93;8.57;;;;;;;;;;5017182;28;20082;-79
2022/05/19 04:46:49;;;;;;;11.80;8.15;;;;;;;;;;5004875;28;20056;-79
2022/05/19 04:49:16;;;;;;;12.18;8.05;;;;;;;;;;5017345;28;20053;-79
2022/05/19 04:51:43;;;;;;;11.80;7.53;;;;;;;;;;5015656;28;20050;-78
2022/05/19 04:54:09;;;;;;;11.00;7.50;;;;;;;;;;5014196;28;20045;-78
2022/05/19 04:56:36;;;;;;;11.10;7.93;;;;;;;;;;5015035;28;20664;-77
2022/05/19 04:59:04;;;;;;;12.63;8.57;;;;;;;;;;5013565;28;20088;-78
2022/05/19 05:01:31;;;;;;;11.70;7.90;;;;;;;;;;5013586;28;20054;-77
2022/05/19 05:03:59;;;;;;;10.15;7.90;;;;;;;;;;5013011;28;20517;-78
2022/05/19 05:06:26;;;;;;;10.88;7.88;;;;;;;;;;5014515;28;20457;-77
2022/05/19 05:08:52;;;;;;;10.25;7.50;;;;;;;;;;5016255;28;20042;-78
2022/05/19 05:11:19;;;;;;;11.10;7.90;;;;;;;;;;5014415;28;20428;-77
2022/05/19 05:13:46;;;;;;;11.00;8.38;;;;;;;;;;5014481;28;20128;-79
2022/05/19 05:16:12;;;;;;;13.10;7.72;;;;;;;;;;5013771;28;20081;-78
2022/05/19 05:18:39;;;;;;;11.68;8.13;;;;;;;;;;5013241;28;20085;-76
2022/05/19 05:21:07;;;;;;;14.27;7.93;;;;;;;;;;5012601;28;20081;-76
2022/05/19 05:23:35;;;;;;;11.70;8.48;;;;;;;;;;5013978;28;20125;-78
2022/05/19 05:26:03;;;;;;;14.35;8.38;;;;;;;;;;5016179;28;20046;-77
2022/05/19 05:28:30;;;;;;;16.55;12.70;;;;;;;;;;5015057;28;20464;-77
2022/05/19 05:30:58;;;;;;;19.92;14.63;;;;;;;;;;5016039;28;20077;-78
2022/05/19 05:33:26;;;;;;;10.43;8.65;;;;;;;;;;5017313;28;20057;-79
2022/05/19 05:35:52;;;;;;;13.57;8.95;;;;;;;;;;5019474;28;20054;-77
2022/05/19 05:38:20;;;;;;;14.07;8.77;;;;;;;;;;5016259;28;20158;-78
2022/05/19 05:40:49;;;;;;;12.23;9.18;;;;;;;;;;5014662;28;20092;-78
2022/05/19 05:43:18;;;;;;;16.35;10.88;;;;;;;;;;5015930;28;20050;-78
2022/05/19 05:45:46;;;;;;;25.25;19.40;;;;;;;;;;5014931;28;20045;-78
2022/05/19 05:48:16;;;;;;;17.90;12.45;;;;;;;;;;5011149;28;20049;-78
2022/05/19 05:50:44;;;;;;;12.57;10.75;;;;;;;;;;5015369;28;20096;-78
2022/05/19 05:53:11;;;;;;;12.18;8.80;;;;;;;;;;5015276;28;20540;-77
2022/05/19 05:55:40;;;;;;;15.07;10.07;;;;;;;;;;5014219;28;20100;-78
2022/05/19 05:58:08;;;;;;;13.02;10.02;;;;;;;;;;5016735;28;20046;-77
2022/05/19 06:00:35;;;;;;;14.60;10.18;;;;;;;;;;5021487;28;20046;-77
2022/05/19 06:03:02;;;;;;;12.18;9.68;;;;;;;;;;5018385;28;20050;-76
2022/05/19 06:05:29;;;;;;;12.77;8.98;;;;;;;;;;5016625;28;20053;-78
2022/05/19 06:07:56;;;;;;;11.68;9.13;;;;;;;;;;5016267;28;20077;-76
2022/05/19 06:10:22;;;;;;;16.13;9.02;;;;;;;;;;5018922;28;20042;-77
2022/05/19 06:12:51;;;;;;;15.85;9.02;;;;;;;;;;5015623;28;20104;-77
2022/05/19 06:15:18;;;;;;;14.75;9.00;;;;;;;;;;5019836;28;20046;-77
2022/05/19 06:17:44;;;;;;;11.43;8.45;;;;;;;;;;5015124;28;20050;-77
2022/05/19 06:20:13;;;;;;;15.73;8.95;;;;;;;;;;5016646;28;20046;-76
2022/05/19 06:22:42;;;;;;;14.27;9.18;;;;;;;;;;5015427;28;20049;-76
2022/05/19 06:25:10;;;;;;;14.30;9.15;;;;;;;;;;5016055;28;20168;-76
2022/05/19 06:27:37;;;;;;;13.85;9.45;;;;;;;;;;5017716;28;20065;-76
2022/05/19 06:30:08;;;;;;;15.13;10.50;;;;;;;;;;5017850;28;20485;-78
2022/05/19 06:32:34;;;;;;;;;;;;;;;;;;5016889;28;20130;-78
2022/05/19 06:35:01;;;;;;;22.65;15.00;;;;;;;;;;5018494;28;19921;-77
2022/05/19 06:37:28;;;;;;;18.67;12.10;;;;;;;;;;5018302;28;20045;-77
2022/05/19 06:39:55;;;;;;;19.52;10.63;;;;;;;;;;5017801;28;20104;-77
2022/05/19 06:42:21;;;;;;;16.50;11.07;;;;;;;;;;5016624;28;20046;-77
2022/05/19 06:44:48;;;;;;;15.75;10.15;;;;;;;;;;5016465;28;20050;-77
2022/05/19 06:47:17;;;;;;;14.55;10.38;;;;;;;;;;5016084;28;20049;-77
2022/05/19 06:49:45;;;;;;;14.20;10.27;;;;;;;;;;5015959;28;20088;-76
2022/05/19 06:52:13;;;;;;;18.23;14.23;;;;;;;;;;5016307;28;20484;-76
2022/05/19 06:54:41;;;;;;;13.82;10.32;;;;;;;;;;5014939;28;20053;-78
2022/05/19 06:57:09;;;;;;;15.50;10.55;;;;;;;;;;5016086;28;20050;-76
2022/05/19 06:59:36;;;;;;;13.90;8.88;;;;;;;;;;5016014;28;20046;-77
2022/05/19 07:02:04;;;;;;;15.00;9.48;;;;;;;;;;5015484;28;20080;-76
2022/05/19 07:04:32;;;;;;;15.43;9.15;;;;;;;;;;5015877;28;20053;-77
2022/05/19 07:06:59;;;;;;;15.02;10.05;;;;;;;;;;5016863;28;20050;-78
2022/05/19 07:09:26;;;;;;;13.25;9.13;;;;;;;;;;5015265;28;20476;-77
2022/05/19 07:11:53;;;;;;;14.23;9.98;;;;;;;;;;5014742;28;20422;-77
2022/05/19 07:14:19;;;;;;;17.65;10.70;;;;;;;;;;5015805;28;20073;-77
2022/05/19 07:16:48;;;;;;;14.77;10.00;;;;;;;;;;5015625;28;20077;-77
2022/05/19 07:22:02;;;;;;;13.45;10.30;;;;;;;;;;5015233;28;20112;-77
2022/05/19 07:24:28;;;;;;;18.52;13.02;;;;;;;;;;5015416;28;20089;-77
2022/05/19 07:26:56;;;;;;;17.73;12.68;;;;;;;;;;5015088;28;20100;-78
2022/05/19 07:29:24;;;;;;;14.75;11.27;;;;;;;;;;5018350;28;20049;-77
2022/05/19 07:31:52;;;;;;;48.90;22.23;;;;;;;;;;5016701;28;20068;-78
2022/05/19 07:34:22;;;;;;;30.77;16.98;;;;;;;;;;5016330;28;20069;-78
2022/05/19 07:36:49;;;;;;;21.10;12.90;;;;;;;;;;5019173;28;20046;-78
2022/05/19 07:39:17;;;;;;;20.83;12.30;;;;;;;;;;5019419;28;20456;-77
2022/05/19 07:41:44;;;;;;;14.13;11.75;;;;;;;;;;5015021;28;20076;-78
2022/05/19 07:44:11;;;;;;;21.63;13.40;;;;;;;;;;5015403;28;20290;-78
2022/05/19 07:46:39;;;;;;;21.23;12.70;;;;;;;;;;5016132;28;20047;-77
2022/05/19 07:49:07;;;;;;;16.17;11.57;;;;;;;;;;5030385;28;20038;-77
2022/05/19 07:51:37;;;;;;;18.42;12.88;;;;;;;;;;5035763;28;20153;-77
2022/05/19 07:54:05;;;;;;;21.33;13.00;;;;;;;;;;5035620;28;20113;-76
2022/05/19 07:56:36;;;;;;;17.88;12.60;;;;;;;;;;5035075;28;20220;-77
2022/05/19 07:59:04;;;;;;;19.27;12.45;;;;;;;;;;5035814;28;20089;-78
2022/05/19 08:01:31;;;;;;;21.10;12.55;;;;;;;;;;5043726;22;20146;-82
2022/05/19 08:03:59;;;;;;;20.75;12.68;;;;;;;;;;5035693;28;20095;-78
2022/05/19 08:06:28;;;;;;;19.08;12.70;;;;;;;;;;5035434;28;20045;-79
2022/05/19 08:08:55;;;;;;;21.05;13.02;;;;;;;;;;5040270;28;20041;-83
2022/05/19 08:11:22;;;;;;;15.70;12.23;;;;;;;;;;5047572;28;20118;-78
2022/05/19 08:16:35;;;;;;;17.73;13.15;;;;;;;;;;5040094;28;20060;-77
2022/05/19 08:19:02;;;;;;;19.35;12.85;;;;;;;;;;5053598;28;20072;-78
2022/05/19 08:21:30;;;;;;;23.23;12.70;;;;;;;;;;5040816;28;20108;-78
2022/05/19 08:23:56;;;;;;;18.67;12.45;;;;;;;;;;5049159;28;20711;-79
2022/05/19 08:26:23;;;;;;;22.92;13.35;;;;;;;;;;5049650;28;20040;-78
2022/05/19 08:28:53;;;;;;;17.27;11.32;;;;;;;;;;5053747;28;20084;-77
2022/05/19 08:31:22;;;;;;;20.55;11.50;;;;;;;;;;5040005;28;20073;-77
2022/05/19 08:33:51;;;;;;;16.83;10.88;;;;;;;;;;5035146;28;20057;-76
2022/05/19 08:36:18;;;;;;;17.58;12.15;;;;;;;;;;5035908;28;20041;-78
2022/05/19 08:38:47;;;;;;;15.55;11.35;;;;;;;;;;5035246;28;20396;-77
2022/05/19 08:41:26;;;;;;;18.10;11.15;;;;;;;;;;5036030;28;20076;-77
2022/05/19 08:43:58;;;;;;;14.43;10.65;;;;;;;;;;5052440;28;20123;-77
2022/05/19 08:46:30;;;;;;;13.40;10.65;;;;;;;;;;5047817;28;20344;-78
2022/05/19 08:49:00;;;;;;;14.80;10.30;;;;;;;;;;5035021;28;20045;-77
2022/05/19 08:51:32;;;;;;;16.85;11.15;;;;;;;;;;5039752;28;20117;-78
2022/05/19 08:54:05;;;;;;;15.10;11.02;;;;;;;;;;5040765;28;20087;-80
2022/05/19 08:56:36;;;;;;;17.60;11.68;;;;;;;;;;5040299;28;20517;-79
2022/05/19 08:59:18;;;;;;;23.23;11.05;;;;;;;;;;5037047;28;20572;-79
2022/05/19 09:01:51;;;;;;;17.50;12.30;;;;;;;;;;5037010;28;20116;-80
2022/05/19 09:04:29;;;;;;;15.35;12.05;;;;;;;;;;5039304;28;20057;-78
2022/05/19 09:10:02;;;;;;;;;;;;;;;;;;5049396;28;20064;-78
2022/05/19 09:12:30;;;;;;;17.55;11.10;;;;;;;;;;5052107;28;19943;-78
2022/05/19 09:14:58;;;;;;;25.45;17.00;;;;;;;;;;5052763;28;20183;-78
2022/05/19 09:17:32;;;;;;;16.08;12.30;;;;;;;;;;5053291;28;20053;-77
2022/05/19 09:20:03;;;;;;;21.77;13.38;;;;;;;;;;5044103;28;20103;-77
2022/05/19 09:22:33;;;;;;;16.88;12.10;;;;;;;;;;5050568;28;20049;-78
2022/05/19 09:25:03;;;;;;;19.13;12.20;;;;;;;;;;5049552;28;20053;-77
2022/05/19 09:27:31;;;;;;;17.52;12.60;;;;;;;;;;5033593;28;20726;-78
2022/05/19 09:29:59;;;;;;;15.38;12.00;;;;;;;;;;5032792;28;20041;-78
2022/05/19 09:32:29;;;;;;;22.45;13.30;;;;;;;;;;5038248;28;20080;-78
2022/05/19 09:35:05;;;;;;;26.75;14.90;;;;;;;;;;5055188;28;20053;-79
2022/05/19 09:37:40;;;;;;;18.65;12.50;;;;;;;;;;5057966;28;20060;-79
2022/05/19 09:40:22;;;;;;;22.30;12.40;;;;;;;;;;5053607;28;20706;-78
2022/05/19 09:42:54;;;;;;;24.95;13.48;;;;;;;;;;5051717;28;20144;-79
2022/05/19 09:45:23;;;;;;;16.38;12.00;;;;;;;;;;5042247;28;20060;-78
2022/05/19 09:47:51;;;;;;;15.47;11.23;;;;;;;;;;5050881;28;20080;-78
2022/05/19 09:50:23;;;;;;;18.35;12.70;;;;;;;;;;5038162;28;20050;-77
2022/05/19 09:52:51;;;;;;;17.50;13.02;;;;;;;;;;5044024;28;20045;-78
2022/05/19 09:55:24;;;;;;;15.98;11.82;;;;;;;;;;5045478;28;20116;-78
2022/05/19 09:57:56;;;;;;;18.60;12.43;;;;;;;;;;5038216;28;20049;-78
2022/05/19 10:00:35;;;;;;;17.42;12.50;;;;;;;;;;5043351;28;20420;-78
2022/05/19 10:03:04;;;;;;;17.83;12.80;;;;;;;;;;5053839;28;20052;-78
2022/05/19 10:05:38;;;;;;;21.08;13.63;;;;;;;;;;5056921;28;20077;-78
2022/05/19 10:08:13;;;;;;;21.58;13.43;;;;;;;;;;5038935;28;20054;-79
2022/05/19 10:10:47;;;;;;;16.25;13.48;;;;;;;;;;5053126;28;20053;-78
2022/05/19 10:13:16;;;;;;;17.00;12.43;;;;;;;;;;5037847;28;20123;-77
2022/05/19 10:15:53;;;;;;;58.08;31.27;;;;;;;;;;5033259;28;20704;-77
2022/05/19 10:18:38;;;;;;;19.75;13.88;;;;;;;;;;5033267;28;20052;-78
2022/05/19 10:21:14;;;;;;;18.83;13.52;;;;;;;;;;5033892;28;20085;-77
2022/05/19 10:23:52;;;;;;;18.55;13.88;;;;;;;;;;5035548;28;20136;-77
2022/05/19 10:26:31;;;;;;;17.52;13.27;;;;;;;;;;5054128;28;20052;-76
2022/05/19 10:32:12;;;;;;;20.10;13.88;;;;;;;;;;5045555;28;20480;-77
2022/05/19 10:34:54;;;;;;;18.25;13.32;;;;;;;;;;5051777;28;20072;-77
2022/05/19 10:37:33;;;;;;;18.35;14.32;;;;;;;;;;5056002;28;20041;-78
2022/05/19 10:40:19;;;;;;;17.65;13.18;;;;;;;;;;5053880;28;20412;-78
2022/05/19 10:42:56;;;;;;;30.48;15.05;;;;;;;;;;5056846;28;20045;-78
2022/05/19 10:45:27;;;;;;;19.52;13.98;;;;;;;;;;5052087;28;20045;-77
2022/05/19 10:48:26;;;;;;;19.40;14.48;;;;;;;;;;5069859;28;20067;-76
2022/05/19 10:50:57;;;;;;;21.42;15.20;;;;;;;;;;5068803;28;20041;-75
2022/05/19 10:53:57;;;;;;;21.55;14.75;;;;;;;;;;5072767;28;20068;-75
2022/05/19 10:56:29;;;;;;;;;;;;;;;;;;5046027;28;20052;-76
2022/05/19 10:59:09;;;;;;;17.75;13.95;;;;;;;;;;5057784;28;19940;-77
2022/05/19 11:01:48;;;;;;;19.50;14.43;;;;;;;;;;5054151;28;20501;-78
2022/05/19 11:04:36;;;;;;;19.27;14.30;;;;;;;;;;5056712;28;20048;-77
2022/05/19 11:07:23;;;;;;;15.95;13.27;;;;;;;;;;5053155;28;20110;-78
2022/05/19 11:10:00;;;;;;;18.20;14.52;;;;;;;;;;5055362;28;20533;-77
2022/05/19 11:12:35;;;;;;;16.05;14.18;;;;;;;;;;5052446;28;20049;-77
2022/05/19 11:15:17;;;;;;;17.80;14.73;;;;;;;;;;5052790;28;20046;-77
2022/05/19 11:17:57;;;;;;;19.65;14.23;;;;;;;;;;5052981;28;20139;-76
2022/05/19 11:20:29;;;;;;;19.05;13.40;;;;;;;;;;5052622;28;20044;-76
2022/05/19 11:23:02;;;;;;;15.93;13.18;;;;;;;;;;5053724;28;20156;-76
2022/05/19 11:28:23;;;;;;;17.70;13.48;;;;;;;;;;5052323;28;20063;-76
2022/05/19 11:30:56;;;;;;;18.33;13.60;;;;;;;;;;5052280;28;20049;-77
2022/05/19 11:33:28;;;;;;;17.20;13.45;;;;;;;;;;5052479;28;20629;-77
2022/05/19 11:36:00;;;;;;;18.25;13.32;;;;;;;;;;5052102;28;20083;-77
2022/05/19 11:38:33;;;;;;;15.88;12.68;;;;;;;;;;5052379;28;20053;-76
2022/05/19 11:41:05;;;;;;;19.13;14.23;;;;;;;;;;5052981;28;20060;-77
2022/05/19 11:43:37;;;;;;;19.42;14.43;;;;;;;;;;5053120;28;20100;-77
2022/05/19 11:46:08;;;;;;;24.10;13.88;;;;;;;;;;5050646;28;20493;-76
2022/05/19 11:57:22;;;;;;;18.85;13.82;;;;;;;;;;5034226;28;20473;-82
2022/05/19 11:59:50;;;;;;;17.77;13.15;;;;;;;;;;5047077;28;20080;-78
2022/05/19 12:02:26;;;;;;;21.17;14.40;;;;;;;;;;5041326;28;20084;-76
2022/05/19 12:04:58;;;;;;;15.07;12.48;;;;;;;;;;5046497;28;20056;-77
2022/05/19 12:07:41;;;;;;;17.83;13.15;;;;;;;;;;5050435;28;20045;-77
2022/05/19 12:10:12;;;;;;;17.05;13.60;;;;;;;;;;5051103;28;20492;-77
2022/05/19 12:12:44;;;;;;;17.48;12.30;;;;;;;;;;5050348;28;20041;-77
2022/05/19 12:15:21;;;;;;;20.77;14.77;;;;;;;;;;5047056;28;20349;-76
2022/05/19 12:17:56;;;;;;;15.95;12.30;;;;;;;;;;5051505;28;20045;-78
2022/05/19 12:20:37;;;;;;;17.02;12.10;;;;;;;;;;5048199;28;20044;-77
2022/05/19 12:23:27;;;;;;;14.23;12.73;;;;;;;;;;5032144;28;20049;-77
2022/05/19 12:25:58;;;;;;;17.45;12.27;;;;;;;;;;5031166;28;20072;-77
2022/05/19 12:28:32;;;;;;;20.50;15.57;;;;;;;;;;5031412;28;20050;-77
2022/05/19 12:33:56;;;;;;;15.93;10.73;;;;;;;;;;5033364;28;20416;-79
2022/05/19 12:36:32;;;;;;;13.18;10.50;;;;;;;;;;5051233;28;20049;-78
2022/05/19 12:39:12;;;;;;;14.45;10.13;;;;;;;;;;5049759;28;20518;-78
2022/05/19 12:41:52;;;;;;;13.25;9.77;;;;;;;;;;5039613;28;20125;-77
2022/05/19 12:44:46;;;;;;;12.65;10.15;;;;;;;;;;5030630;28;20045;-78
2022/05/19 12:47:19;;;;;;;12.65;9.75;;;;;;;;;;5036220;28;20095;-76
2022/05/19 12:50:26;;;;;;;15.68;9.43;;;;;;;;;;5041973;28;20588;-78
2022/05/19 12:53:05;;;;;;;12.07;9.52;;;;;;;;;;5046076;28;20057;-79
2022/05/19 12:55:53;;;;;;;26.02;11.32;;;;;;;;;;5048571;28;20099;-78
2022/05/19 12:58:59;;;;;;;15.20;9.95;;;;;;;;;;5048721;28;20045;-77
2022/05/19 13:01:30;;;;;;;17.63;13.07;;;;;;;;;;5015777;28;20605;-76
2022/05/19 13:04:06;;;;;;;13.50;9.70;;;;;;;;;;5045237;28;20048;-78
2022/05/19 13:06:33;;;;;;;15.93;10.65;;;;;;;;;;5051496;28;20041;-78
2022/05/19 13:09:08;;;;;;;15.82;10.75;;;;;;;;;;5054029;28;20431;-78
2022/05/19 13:11:44;;;;;;;12.80;8.90;;;;;;;;;;5044384;28;20103;-79
2022/05/19 13:14:15;;;;;;;13.77;9.18;;;;;;;;;;5052613;28;20405;-77
2022/05/19 13:16:44;;;;;;;11.15;8.65;;;;;;;;;;5044648;28;20037;-78
2022/05/19 13:19:17;;;;;;;13.55;8.52;;;;;;;;;;5048973;28;20045;-80
2022/05/19 13:21:52;;;;;;;10.05;8.27;;;;;;;;;;5034702;28;20045;-78
2022/05/19 13:24:20;;;;;;;12.90;9.15;;;;;;;;;;5035728;28;20513;-80
2022/05/19 13:30:20;;;;;;;15.13;9.15;;;;;;;;;;5053398;28;20433;-77
2022/05/19 13:32:25;;;;;;;12.20;9.07;;;;;;;;;;5049772;28;20057;-80
2022/05/19 13:34:54;;;;;;;13.15;9.75;;;;;;;;;;5058003;28;20534;-78
2022/05/19 13:37:30;;;;;;;12.00;8.67;;;;;;;;;;5053452;28;20075;-78
2022/05/19 13:40:10;;;;;;;12.75;9.52;;;;;;;;;;5044235;28;20059;-78
2022/05/19 13:42:39;;;;;;;12.10;8.98;;;;;;;;;;5054797;28;20452;-79
2022/05/19 13:45:07;;;;;;;12.13;9.50;;;;;;;;;;5056226;28;20072;-79
2022/05/19 13:47:34;;;;;;;11.18;8.77;;;;;;;;;;5048765;28;20053;-78
2022/05/19 13:50:05;;;;;;;12.35;7.63;;;;;;;;;;5049260;28;20045;-78
2022/05/19 13:52:34;;;;;;;10.43;6.65;;;;;;;;;;5048284;28;20045;-78
2022/05/19 13:55:01;;;;;;;11.93;7.53;;;;;;;;;;5047616;28;20091;-79
2022/05/19 13:57:29;;;;;;;12.32;7.85;;;;;;;;;;5046234;28;20439;-79
2022/05/19 14:00:01;;;;;;;11.77;7.75;;;;;;;;;;5043456;28;20061;-78
2022/05/19 14:02:32;;;;;;;10.43;7.47;;;;;;;;;;5045545;28;20061;-78
2022/05/19 14:04:59;;;;;;;10.68;7.65;;;;;;;;;;5049765;28;20451;-79
2022/05/19 14:07:27;;;;;;;10.85;7.03;;;;;;;;;;5047167;28;20050;-78
2022/05/19 14:09:58;;;;;;;11.25;7.07;;;;;;;;;;5037190;28;20089;-81
2022/05/19 14:12:37;;;;;;;12.20;6.93;;;;;;;;;;5055249;28;20103;-82
2022/05/19 14:15:06;;;;;;;;;;;;;;;;;;5049740;28;20073;-80
2022/05/19 14:17:38;;;;;;;11.63;7.68;;;;;;;;;;5069272;22;19921;-65
2022/05/19 14:20:09;;;;;;;11.57;8.32;;;;;;;;;;5032797;28;20042;-66
2022/05/19 14:22:36;;;;;;;9.77;7.70;;;;;;;;;;5032859;28;20376;-70
2022/05/19 14:25:09;;;;;;;146.27;19.33;;;;;;;;;;5032021;28;20045;-63
2022/05/19 14:27:38;;;;;;;12.55;8.48;;;;;;;;;;5032183;28;20080;-66
2022/05/19 14:30:13;;;;;;;11.82;8.07;;;;;;;;;;5032163;28;20048;-66
2022/05/19 14:32:52;;;;;;;12.13;7.65;;;;;;;;;;5032115;28;20038;-67
2022/05/19 14:35:22;;;;;;;10.45;8.45;;;;;;;;;;5023009;28;20049;-66
2022/05/19 14:37:54;;;;;;;13.00;8.95;;;;;;;;;;5030306;28;20045;-66
2022/05/19 14:43:11;;;;;;;15.35;9.23;;;;;;;;;;5019106;28;20048;-67
2022/05/19 14:45:42;;;;;;;13.45;9.35;;;;;;;;;;5030088;28;20128;-67
2022/05/19 14:48:12;;;;;;;16.80;11.98;;;;;;;;;;5031678;28;20049;-66
2022/05/19 14:50:42;;;;;;;11.63;8.48;;;;;;;;;;5032006;28;20053;-65
2022/05/19 14:53:15;;;;;;;12.65;8.25;;;;;;;;;;5032031;28;20049;-66
2022/05/19 14:55:45;;;;;;;14.82;8.85;;;;;;;;;;5032124;28;20053;-65
2022/05/19 14:58:16;;;;;;;11.40;8.25;;;;;;;;;;5032209;28;20053;-65
2022/05/19 15:00:44;;;;;;;9.45;7.90;;;;;;;;;;5031778;28;20052;-66
2022/05/19 15:03:12;;;;;;;10.85;8.25;;;;;;;;;;5032082;28;20422;-65
2022/05/19 15:05:41;;;;;;;11.90;8.63;;;;;;;;;;5025594;28;20045;-64
2022/05/19 15:08:10;;;;;;;13.47;8.93;;;;;;;;;;5033075;28;20518;-67
2022/05/19 15:10:38;;;;;;;14.30;8.38;;;;;;;;;;5032063;28;20636;-71
2022/05/19 15:13:06;;;;;;;34.40;10.07;;;;;;;;;;5032105;28;20057;-68
2022/05/19 15:15:37;;;;;;;24.48;10.77;;;;;;;;;;5032094;28;20049;-61
2022/05/19 15:18:07;;;;;;;282.02;30.42;;;;;;;;;;5028138;28;20054;-67